Time;durP1;ratioP1;P1;durP2;ratioP2;P2;SDS_P1;SDS_P2;PMS_P1;PMS_P2;Temp;Humidity;BMP_temperature;BMP_pressure;BME280_temperature;BME280_humidity;BME280_pressure;Samples;Min_cycle;Max_cycle;Signal;HPM_P1;HPM_P2
2021/10/31 12:11:18;;;;;;;14.77;9.02;;;;;;;;;;3857702;37;20098;-65
2021/10/31 12:13:51;;;;;;;14.30;9.40;;;;;;;;;;4418139;32;20117;-64
2021/10/31 12:16:17;;;;;;;15.43;8.70;;;;;;;;;;4419224;32;20120;-64
2021/10/31 12:18:46;;;;;;;12.45;8.73;;;;;;;;;;4419528;32;20190;-64
2021/10/31 12:21:25;;;;;;;15.90;9.23;;;;;;;;;;4419530;32;20127;-63
2021/10/31 12:23:54;;;;;;;13.13;8.55;;;;;;;;;;4417998;32;20217;-63
2021/10/31 12:26:21;;;;;;;19.42;8.73;;;;;;;;;;4418168;32;20463;-62
2021/10/31 12:28:47;;;;;;;16.70;8.98;;;;;;;;;;4419653;32;20127;-63
2021/10/31 12:31:50;;;;;;;17.60;9.05;;;;;;;;;;4405348;32;20606;-63
2021/10/31 12:34:18;;;;;;;12.43;8.85;;;;;;;;;;4417612;32;20139;-64
2021/10/31 12:36:51;;;;;;;15.18;8.65;;;;;;;;;;4391999;32;20524;-63
2021/10/31 12:39:28;;;;;;;14.40;8.65;;;;;;;;;;4417685;32;20121;-62
2021/10/31 12:42:10;;;;;;;12.88;9.15;;;;;;;;;;4403573;32;20112;-63
2021/10/31 12:44:36;;;;;;;12.95;9.55;;;;;;;;;;4418207;32;20113;-66
2021/10/31 12:47:08;;;;;;;16.55;10.05;;;;;;;;;;4417001;32;20097;-63
2021/10/31 12:49:33;;;;;;;15.68;8.90;;;;;;;;;;4404112;32;20547;-63
2021/10/31 12:52:03;;;;;;;11.55;9.07;;;;;;;;;;4404377;32;20089;-64
2021/10/31 12:54:35;;;;;;;15.52;9.82;;;;;;;;;;4402624;32;20120;-64
2021/10/31 12:57:06;;;;;;;12.07;8.80;;;;;;;;;;4402868;32;20183;-64
2021/10/31 12:59:32;;;;;;;12.57;8.90;;;;;;;;;;4404016;32;20532;-64
2021/10/31 13:02:07;;;;;;;9.32;6.18;;;;;;;;;;4404047;32;20186;-65
2021/10/31 13:04:47;;;;;;;13.90;7.93;;;;;;;;;;4404253;32;20143;-64
2021/10/31 13:07:13;;;;;;;10.52;8.02;;;;;;;;;;4402541;32;20121;-64
2021/10/31 13:09:39;;;;;;;7.68;4.68;;;;;;;;;;4402151;32;20555;-63
2021/10/31 13:12:05;;;;;;;12.55;8.60;;;;;;;;;;4403957;32;20128;-63
2021/10/31 13:14:35;;;;;;;12.85;8.30;;;;;;;;;;4402436;32;20500;-63
2021/10/31 13:17:03;;;;;;;11.38;8.23;;;;;;;;;;4403901;32;20164;-64
2021/10/31 13:19:33;;;;;;;11.25;8.35;;;;;;;;;;4390067;32;20509;-63
2021/10/31 13:22:01;;;;;;;13.15;8.40;;;;;;;;;;4382830;32;20112;-64
2021/10/31 13:24:34;;;;;;;10.63;6.60;;;;;;;;;;4392327;32;20131;-64
2021/10/31 13:27:00;;;;;;;10.18;8.07;;;;;;;;;;4392642;32;20097;-63
2021/10/31 13:29:40;;;;;;;10.68;5.80;;;;;;;;;;4392418;32;20174;-63
2021/10/31 13:32:14;;;;;;;11.63;8.35;;;;;;;;;;4392479;32;20096;-64
2021/10/31 13:34:40;;;;;;;12.10;8.00;;;;;;;;;;4392304;32;20101;-64
2021/10/31 13:37:07;;;;;;;11.60;7.18;;;;;;;;;;4392481;32;20189;-64
2021/10/31 13:39:33;;;;;;;8.57;5.62;;;;;;;;;;4393666;32;20131;-63
2021/10/31 13:42:00;;;;;;;15.45;6.78;;;;;;;;;;4393617;32;20101;-64
2021/10/31 13:44:26;;;;;;;9.82;6.47;;;;;;;;;;4392068;32;20205;-64
2021/10/31 13:47:03;;;;;;;11.15;7.47;;;;;;;;;;4393837;32;20122;-63
2021/10/31 13:49:31;;;;;;;12.52;7.50;;;;;;;;;;4393396;32;20116;-63
2021/10/31 13:51:57;;;;;;;11.43;7.62;;;;;;;;;;4392307;32;20088;-62
2021/10/31 13:54:23;;;;;;;13.45;8.68;;;;;;;;;;4367306;32;20094;-62
2021/10/31 13:56:50;;;;;;;21.10;8.30;;;;;;;;;;4379884;32;20090;-63
2021/10/31 13:59:20;;;;;;;12.00;7.70;;;;;;;;;;4392011;32;20585;-63
2021/10/31 14:01:48;;;;;;;12.75;8.32;;;;;;;;;;4391975;32;20558;-63
2021/10/31 14:04:23;;;;;;;8.80;6.72;;;;;;;;;;4393346;32;20134;-62
2021/10/31 14:07:00;;;;;;;11.65;8.07;;;;;;;;;;4393381;32;20464;-63
2021/10/31 14:09:26;;;;;;;11.15;6.90;;;;;;;;;;4393553;32;20105;-63
2021/10/31 14:12:00;;;;;;;9.52;7.05;;;;;;;;;;4393512;32;20117;-62
2021/10/31 14:14:51;;;;;;;10.45;6.95;;;;;;;;;;4379720;32;20120;-62
2021/10/31 14:17:18;;;;;;;12.25;7.80;;;;;;;;;;4393225;32;20120;-63
2021/10/31 14:19:46;;;;;;;8.90;7.07;;;;;;;;;;4393093;32;20225;-62
2021/10/31 14:22:13;;;;;;;10.13;7.75;;;;;;;;;;4393203;32;20124;-62
2021/10/31 14:24:40;;;;;;;10.50;7.37;;;;;;;;;;4393346;32;20544;-63
2021/10/31 14:27:22;;;;;;;10.65;7.20;;;;;;;;;;4366931;32;20172;-63
2021/10/31 14:29:48;;;;;;;9.57;6.97;;;;;;;;;;4391683;32;20121;-62
2021/10/31 14:32:14;;;;;;;7.12;6.03;;;;;;;;;;4392980;32;20102;-62
2021/10/31 14:35:00;;;;;;;6.35;4.80;;;;;;;;;;4390977;32;20229;-62
2021/10/31 14:37:26;;;;;;;10.27;6.18;;;;;;;;;;4391758;32;20156;-64
2021/10/31 14:39:52;;;;;;;12.68;6.70;;;;;;;;;;4391634;32;20198;-64
2021/10/31 14:42:29;;;;;;;13.13;6.05;;;;;;;;;;4393108;32;20105;-64
2021/10/31 14:44:57;;;;;;;8.38;6.10;;;;;;;;;;4393132;32;21021;-63
2021/10/31 14:47:22;;;;;;;7.82;6.12;;;;;;;;;;4393354;32;20097;-63
2021/10/31 14:49:49;;;;;;;7.18;5.53;;;;;;;;;;4392989;32;20489;-63
2021/10/31 14:52:15;;;;;;;17.33;6.93;;;;;;;;;;4393219;32;20092;-64
2021/10/31 14:54:43;;;;;;;8.50;3.72;;;;;;;;;;4391712;32;20603;-63
2021/10/31 14:59:46;;;;;;;7.90;5.50;;;;;;;;;;4392807;32;20086;-63
2021/10/31 15:02:22;;;;;;;7.45;5.80;;;;;;;;;;4392942;32;20100;-64
2021/10/31 15:04:48;;;;;;;8.10;5.35;;;;;;;;;;4391471;32;20314;-63
2021/10/31 15:07:14;;;;;;;7.57;5.50;;;;;;;;;;4392873;32;20101;-63
2021/10/31 15:09:40;;;;;;;9.70;5.45;;;;;;;;;;4392534;32;20104;-63
2021/10/31 15:12:06;;;;;;;6.12;4.65;;;;;;;;;;4392867;32;20517;-63
2021/10/31 15:14:32;;;;;;;6.10;4.55;;;;;;;;;;4392763;32;20578;-63
2021/10/31 15:16:58;;;;;;;7.80;5.53;;;;;;;;;;4392798;32;20125;-63
2021/10/31 15:19:24;;;;;;;9.70;5.85;;;;;;;;;;4392770;32;20092;-62
2021/10/31 15:21:50;;;;;;;8.82;4.43;;;;;;;;;;4392618;32;20113;-63
2021/10/31 15:24:16;;;;;;;12.27;4.47;;;;;;;;;;4392809;32;20217;-63
2021/10/31 15:26:42;;;;;;;7.18;4.75;;;;;;;;;;4392702;32;20294;-63
2021/10/31 15:29:09;;;;;;;9.20;4.95;;;;;;;;;;4391066;32;20221;-64
2021/10/31 15:31:36;;;;;;;8.23;4.90;;;;;;;;;;4393050;32;20189;-63
2021/10/31 15:34:02;;;;;;;6.28;4.72;;;;;;;;;;4392428;32;20116;-63
2021/10/31 15:36:28;;;;;;;7.15;4.97;;;;;;;;;;4392837;32;20631;-61
2021/10/31 15:38:54;;;;;;;9.07;4.90;;;;;;;;;;4366176;32;20432;-64
2021/10/31 15:41:21;;;;;;;8.45;5.18;;;;;;;;;;4378618;32;20104;-66
2021/10/31 15:43:48;;;;;;;6.57;4.43;;;;;;;;;;4391962;32;20125;-67
2021/10/31 15:46:14;;;;;;;5.65;4.70;;;;;;;;;;4391032;32;20120;-68
2021/10/31 15:48:40;;;;;;;5.85;4.50;;;;;;;;;;4390070;32;20116;-67
2021/10/31 15:51:05;;;;;;;7.90;4.37;;;;;;;;;;4392072;32;20109;-66
2021/10/31 15:53:32;;;;;;;6.35;3.80;;;;;;;;;;4392181;32;20599;-67
2021/10/31 15:55:57;;;;;;;5.95;4.80;;;;;;;;;;4392613;32;20090;-65
2021/10/31 15:58:27;;;;;;;11.00;5.78;;;;;;;;;;4378162;32;20209;-66
2021/10/31 16:00:56;;;;;;;7.70;4.68;;;;;;;;;;4390588;32;20123;-68
2021/10/31 16:03:27;;;;;;;5.80;5.18;;;;;;;;;;4378154;32;20112;-65
2021/10/31 16:05:53;;;;;;;7.30;4.97;;;;;;;;;;4392432;32;20097;-67
2021/10/31 16:08:19;;;;;;;5.97;5.32;;;;;;;;;;4390832;32;20105;-67
2021/10/31 16:10:45;;;;;;;12.15;5.20;;;;;;;;;;4392195;32;20237;-67
2021/10/31 16:13:10;;;;;;;5.55;4.43;;;;;;;;;;4392246;32;20583;-68
2021/10/31 16:15:36;;;;;;;5.60;4.60;;;;;;;;;;4392318;32;20180;-67
2021/10/31 16:18:02;;;;;;;12.25;5.07;;;;;;;;;;4392214;32;20508;-68
2021/10/31 16:20:28;;;;;;;6.15;4.70;;;;;;;;;;4390882;32;20201;-67
2021/10/31 16:22:54;;;;;;;6.22;4.57;;;;;;;;;;4392449;32;20093;-68
2021/10/31 16:25:25;;;;;;;9.77;5.12;;;;;;;;;;4390489;32;20625;-67
2021/10/31 16:27:51;;;;;;;10.07;4.65;;;;;;;;;;4385115;32;20437;-67
2021/10/31 16:30:17;;;;;;;7.72;5.22;;;;;;;;;;4384427;32;20094;-68
2021/10/31 16:32:43;;;;;;;8.30;5.80;;;;;;;;;;4384417;32;20153;-67
2021/10/31 16:35:10;;;;;;;13.15;6.10;;;;;;;;;;4383296;32;20106;-67
2021/10/31 16:37:36;;;;;;;5.80;5.20;;;;;;;;;;4384434;32;20094;-67
2021/10/31 16:40:03;;;;;;;6.25;4.78;;;;;;;;;;4380803;32;20078;-68
2021/10/31 16:42:31;;;;;;;5.07;4.55;;;;;;;;;;4376690;32;20106;-66
2021/10/31 16:44:57;;;;;;;8.52;5.40;;;;;;;;;;4387936;32;20468;-67
2021/10/31 16:47:23;;;;;;;8.15;5.00;;;;;;;;;;4376734;32;20137;-67
2021/10/31 16:49:50;;;;;;;11.50;6.35;;;;;;;;;;4376606;32;20121;-68
2021/10/31 16:52:16;;;;;;;7.35;5.65;;;;;;;;;;4387576;32;20165;-68
2021/10/31 16:54:42;;;;;;;14.57;6.20;;;;;;;;;;4376658;32;20124;-68
2021/10/31 16:57:11;;;;;;;9.50;5.50;;;;;;;;;;4378149;32;20126;-68
2021/10/31 16:59:38;;;;;;;10.55;6.15;;;;;;;;;;4390122;32;20182;-67
2021/10/31 17:02:04;;;;;;;8.65;5.12;;;;;;;;;;4379401;32;20090;-66
2021/10/31 17:04:30;;;;;;;9.02;5.00;;;;;;;;;;4392576;32;20104;-68
2021/10/31 17:06:57;;;;;;;9.80;4.70;;;;;;;;;;4393906;32;20334;-68
2021/10/31 17:09:23;;;;;;;7.53;4.60;;;;;;;;;;4392579;32;20214;-69
2021/10/31 17:11:49;;;;;;;5.22;4.50;;;;;;;;;;4392392;32;20113;-68
2021/10/31 17:14:15;;;;;;;4.97;4.43;;;;;;;;;;4392451;32;20120;-68
2021/10/31 17:16:41;;;;;;;7.37;5.47;;;;;;;;;;4379948;32;20121;-69
2021/10/31 17:19:08;;;;;;;6.35;4.87;;;;;;;;;;4403150;32;20144;-68
2021/10/31 17:21:34;;;;;;;8.95;5.00;;;;;;;;;;4377506;32;20117;-68
2021/10/31 17:24:00;;;;;;;5.37;4.78;;;;;;;;;;4377349;32;20086;-68
2021/10/31 17:26:26;;;;;;;7.53;4.47;;;;;;;;;;4377173;32;20144;-68
2021/10/31 17:28:53;;;;;;;6.28;4.75;;;;;;;;;;4377169;32;20146;-68
2021/10/31 17:31:19;;;;;;;6.37;4.45;;;;;;;;;;4378490;32;20082;-68
2021/10/31 17:33:45;;;;;;;8.38;5.30;;;;;;;;;;4377239;32;20109;-68
2021/10/31 17:36:11;;;;;;;6.87;4.60;;;;;;;;;;4378483;32;20528;-69
2021/10/31 17:38:37;;;;;;;5.75;4.82;;;;;;;;;;4378875;32;20105;-67
2021/10/31 17:41:04;;;;;;;7.68;4.40;;;;;;;;;;4364907;32;20181;-68
2021/10/31 17:43:30;;;;;;;6.22;4.72;;;;;;;;;;4377057;32;20094;-68
2021/10/31 17:45:56;;;;;;;6.22;4.78;;;;;;;;;;4378918;32;20124;-68
2021/10/31 17:48:22;;;;;;;6.00;4.55;;;;;;;;;;4378558;32;20128;-72
2021/10/31 17:50:48;;;;;;;7.87;5.55;;;;;;;;;;4377157;32;20116;-68
2021/10/31 17:53:14;;;;;;;4.97;4.15;;;;;;;;;;4378491;32;20094;-67
2021/10/31 17:55:41;;;;;;;5.53;4.07;;;;;;;;;;4378586;32;20117;-67
2021/10/31 17:58:08;;;;;;;7.55;4.82;;;;;;;;;;4378494;32;20186;-68
2021/10/31 18:00:34;;;;;;;8.98;4.80;;;;;;;;;;4364767;32;20100;-68
2021/10/31 18:03:00;;;;;;;5.78;4.53;;;;;;;;;;4378662;32;20137;-68
2021/10/31 18:05:28;;;;;;;6.20;4.70;;;;;;;;;;4378391;32;20189;-68
2021/10/31 18:07:54;;;;;;;6.75;4.93;;;;;;;;;;4377124;32;20436;-68
2021/10/31 18:10:20;;;;;;;6.60;4.03;;;;;;;;;;4378266;32;20135;-67
2021/10/31 18:12:46;;;;;;;6.12;4.80;;;;;;;;;;4376873;32;20519;-68
2021/10/31 18:15:13;;;;;;;10.93;5.90;;;;;;;;;;4376667;32;20125;-67
2021/10/31 18:17:39;;;;;;;6.62;5.30;;;;;;;;;;4389472;32;20118;-68
2021/10/31 18:20:06;;;;;;;6.82;5.45;;;;;;;;;;4378163;32;20105;-68
2021/10/31 18:22:32;;;;;;;7.87;5.62;;;;;;;;;;4352130;32;20174;-66
2021/10/31 18:24:59;;;;;;;8.75;5.70;;;;;;;;;;4378068;32;20114;-68
2021/10/31 18:27:27;;;;;;;6.82;5.93;;;;;;;;;;4378107;32;20522;-67
2021/10/31 18:29:53;;;;;;;6.55;5.32;;;;;;;;;;4378009;32;20133;-68
2021/10/31 18:32:19;;;;;;;12.10;5.47;;;;;;;;;;4376992;32;20178;-68
2021/10/31 18:34:46;;;;;;;5.47;4.78;;;;;;;;;;4378217;32;20098;-68
2021/10/31 18:37:15;;;;;;;6.12;5.47;;;;;;;;;;4378275;32;20101;-68
2021/10/31 18:39:41;;;;;;;6.03;4.90;;;;;;;;;;4364444;32;20106;-67
2021/10/31 18:42:07;;;;;;;6.40;4.80;;;;;;;;;;4376619;32;20124;-67
2021/10/31 18:44:33;;;;;;;5.43;4.72;;;;;;;;;;4378068;32;20213;-68
2021/10/31 18:46:59;;;;;;;6.20;5.00;;;;;;;;;;4378252;32;20095;-69
2021/10/31 18:49:25;;;;;;;6.18;5.05;;;;;;;;;;4378312;32;20100;-67
2021/10/31 18:51:51;;;;;;;7.32;4.62;;;;;;;;;;4376389;32;20125;-68
2021/10/31 18:54:17;;;;;;;7.47;4.57;;;;;;;;;;4378227;32;20190;-67
2021/10/31 18:56:43;;;;;;;6.37;4.50;;;;;;;;;;4376459;32;20125;-68
2021/10/31 18:59:09;;;;;;;6.55;4.50;;;;;;;;;;4377956;32;20437;-67
2021/10/31 19:01:37;;;;;;;5.62;5.03;;;;;;;;;;4377825;32;20121;-68
2021/10/31 19:04:05;;;;;;;7.07;4.57;;;;;;;;;;4377156;32;20617;-68
2021/10/31 19:06:35;;;;;;;7.68;4.70;;;;;;;;;;4374452;32;20122;-68
2021/10/31 19:09:03;;;;;;;8.32;4.70;;;;;;;;;;4375537;32;20105;-69
2021/10/31 19:11:30;;;;;;;6.40;5.00;;;;;;;;;;4349596;32;20122;-69
2021/10/31 19:14:03;;;;;;;5.40;4.60;;;;;;;;;;4362220;32;20703;-68
2021/10/31 19:16:30;;;;;;;5.78;4.87;;;;;;;;;;4377777;32;20113;-68
2021/10/31 19:18:55;;;;;;;5.15;4.65;;;;;;;;;;4377324;32;20964;-68
2021/10/31 19:21:24;;;;;;;5.22;4.70;;;;;;;;;;4377672;32;20121;-68
2021/10/31 19:23:50;;;;;;;7.05;4.72;;;;;;;;;;4376133;32;20106;-69
2021/10/31 19:26:16;;;;;;;5.62;4.90;;;;;;;;;;4376158;32;20128;-69
2021/10/31 19:28:42;;;;;;;5.45;4.90;;;;;;;;;;4376185;32;20114;-68
2021/10/31 19:31:12;;;;;;;6.28;5.22;;;;;;;;;;4377722;32;20214;-68
2021/10/31 19:33:39;;;;;;;6.35;5.00;;;;;;;;;;4376239;32;20124;-68
2021/10/31 19:36:05;;;;;;;6.43;4.70;;;;;;;;;;4376258;32;20136;-69
2021/10/31 19:38:31;;;;;;;6.37;4.45;;;;;;;;;;4376335;32;20548;-68
2021/10/31 19:40:57;;;;;;;6.53;4.70;;;;;;;;;;4376023;32;20214;-69
2021/10/31 19:43:23;;;;;;;5.40;4.53;;;;;;;;;;4377733;32;20117;-69
2021/10/31 19:45:48;;;;;;;5.90;4.80;;;;;;;;;;4375985;32;20107;-68
2021/10/31 19:48:16;;;;;;;7.35;5.45;;;;;;;;;;4376212;32;20104;-69
2021/10/31 19:50:42;;;;;;;7.22;4.97;;;;;;;;;;4377458;32;20113;-69
2021/10/31 19:53:07;;;;;;;7.80;5.05;;;;;;;;;;4363442;32;20133;-68
2021/10/31 19:55:33;;;;;;;7.28;5.22;;;;;;;;;;4351011;32;20206;-69
2021/10/31 19:57:59;;;;;;;8.70;5.60;;;;;;;;;;4376026;32;20233;-69
2021/10/31 20:00:26;;;;;;;8.25;5.40;;;;;;;;;;4377476;32;20093;-69
2021/10/31 20:02:52;;;;;;;6.40;5.20;;;;;;;;;;4375814;32;20114;-69
2021/10/31 20:05:18;;;;;;;6.72;5.65;;;;;;;;;;4375965;32;20118;-69
2021/10/31 20:07:44;;;;;;;7.90;5.45;;;;;;;;;;4377106;32;20110;-69
2021/10/31 20:10:11;;;;;;;6.75;6.00;;;;;;;;;;4375649;32;20345;-69
2021/10/31 20:12:37;;;;;;;5.57;4.82;;;;;;;;;;4377093;32;20114;-69
2021/10/31 20:15:04;;;;;;;6.85;5.78;;;;;;;;;;4377357;32;20137;-68
2021/10/31 20:17:34;;;;;;;9.05;5.62;;;;;;;;;;4375580;32;20097;-69
2021/10/31 20:20:01;;;;;;;6.37;5.70;;;;;;;;;;4375520;32;20090;-68
2021/10/31 20:22:27;;;;;;;6.37;5.75;;;;;;;;;;4377282;32;20106;-69
2021/10/31 20:24:53;;;;;;;7.22;6.37;;;;;;;;;;4375884;32;20339;-69
2021/10/31 20:27:19;;;;;;;6.68;5.97;;;;;;;;;;4375506;32;20098;-69
2021/10/31 20:29:45;;;;;;;9.43;6.93;;;;;;;;;;4375535;32;20177;-69
2021/10/31 20:32:11;;;;;;;7.28;4.97;;;;;;;;;;4378200;32;20093;-68
2021/10/31 20:34:37;;;;;;;6.43;5.32;;;;;;;;;;4377853;32;20093;-68
2021/10/31 20:37:03;;;;;;;8.98;5.85;;;;;;;;;;4377716;32;20501;-68
2021/10/31 20:39:29;;;;;;;7.10;5.82;;;;;;;;;;4379276;32;20620;-69
2021/10/31 20:41:55;;;;;;;7.03;6.12;;;;;;;;;;4377685;32;20113;-68
2021/10/31 20:44:22;;;;;;;7.95;6.00;;;;;;;;;;4379159;32;20122;-68
2021/10/31 20:46:48;;;;;;;9.50;6.03;;;;;;;;;;4379055;32;20101;-69
2021/10/31 20:49:14;;;;;;;8.82;5.95;;;;;;;;;;4379351;32;20098;-69
2021/10/31 20:51:39;;;;;;;6.95;5.65;;;;;;;;;;4377917;32;20196;-69
2021/10/31 20:54:06;;;;;;;6.30;4.78;;;;;;;;;;4379042;32;20122;-69
2021/10/31 20:56:38;;;;;;;7.15;5.97;;;;;;;;;;4379121;32;20760;-68
2021/10/31 20:59:09;;;;;;;7.25;5.97;;;;;;;;;;4379289;32;20460;-68
2021/10/31 21:01:35;;;;;;;9.32;6.40;;;;;;;;;;4365945;32;20120;-69
2021/10/31 21:04:01;;;;;;;8.32;6.43;;;;;;;;;;4378926;32;20098;-69
2021/10/31 21:06:27;;;;;;;7.60;6.22;;;;;;;;;;4378932;32;20221;-69
2021/10/31 21:08:53;;;;;;;7.12;6.25;;;;;;;;;;4377341;32;20145;-68
2021/10/31 21:11:20;;;;;;;7.62;6.47;;;;;;;;;;4377456;32;20098;-69
2021/10/31 21:13:47;;;;;;;7.47;6.22;;;;;;;;;;4377651;32;20196;-68
2021/10/31 21:16:20;;;;;;;7.80;6.12;;;;;;;;;;4377639;32;20113;-68
2021/10/31 21:18:46;;;;;;;8.35;6.00;;;;;;;;;;4377433;32;20217;-68
2021/10/31 21:21:12;;;;;;;7.55;6.75;;;;;;;;;;4378849;32;20132;-69
2021/10/31 21:23:44;;;;;;;6.57;5.87;;;;;;;;;;4379033;32;20493;-68
2021/10/31 21:26:11;;;;;;;7.87;6.03;;;;;;;;;;4354069;32;20128;-69
2021/10/31 21:28:37;;;;;;;10.32;5.80;;;;;;;;;;4378703;32;20524;-69
2021/10/31 21:31:03;;;;;;;7.87;6.55;;;;;;;;;;4378904;32;20133;-68
2021/10/31 21:33:30;;;;;;;7.05;5.78;;;;;;;;;;4378706;32;20194;-68
2021/10/31 21:35:56;;;;;;;8.20;6.50;;;;;;;;;;4377170;32;20109;-68
2021/10/31 21:38:24;;;;;;;8.98;6.43;;;;;;;;;;4377224;32;20126;-69
2021/10/31 21:40:55;;;;;;;10.73;7.05;;;;;;;;;;4377230;32;20491;-69
2021/10/31 21:43:21;;;;;;;9.25;7.07;;;;;;;;;;4365066;32;20119;-68
2021/10/31 21:45:47;;;;;;;7.85;6.62;;;;;;;;;;4377126;32;20559;-69
2021/10/31 21:48:13;;;;;;;8.30;6.72;;;;;;;;;;4378497;32;20124;-66
2021/10/31 21:50:38;;;;;;;11.07;7.18;;;;;;;;;;4364715;32;20118;-68
2021/10/31 21:53:04;;;;;;;6.87;6.18;;;;;;;;;;4377003;32;20133;-67
2021/10/31 21:55:30;;;;;;;7.35;6.53;;;;;;;;;;4378700;32;20464;-67
2021/10/31 21:57:56;;;;;;;8.13;6.25;;;;;;;;;;4378416;32;20117;-68
2021/10/31 22:00:23;;;;;;;10.05;7.18;;;;;;;;;;4376989;32;20105;-67
2021/10/31 22:02:49;;;;;;;7.57;6.78;;;;;;;;;;4376880;32;20509;-67
2021/10/31 22:05:15;;;;;;;8.43;6.45;;;;;;;;;;4378817;32;20094;-67
2021/10/31 22:07:41;;;;;;;11.40;7.50;;;;;;;;;;4378264;32;20105;-67
2021/10/31 22:10:07;;;;;;;10.07;7.07;;;;;;;;;;4377073;32;20117;-67
2021/10/31 22:12:34;;;;;;;10.35;7.40;;;;;;;;;;4376847;32;20112;-67
2021/10/31 22:14:59;;;;;;;7.93;6.87;;;;;;;;;;4377005;32;20101;-67
2021/10/31 22:17:29;;;;;;;9.55;7.72;;;;;;;;;;4376796;32;20532;-68
2021/10/31 22:19:55;;;;;;;8.93;7.03;;;;;;;;;;4378251;32;20202;-67
2021/10/31 22:22:21;;;;;;;8.73;7.03;;;;;;;;;;4378196;32;20118;-67
2021/10/31 22:24:48;;;;;;;10.38;7.57;;;;;;;;;;4376884;32;20120;-67
2021/10/31 22:27:14;;;;;;;12.00;7.20;;;;;;;;;;4376930;32;20125;-68
2021/10/31 22:29:41;;;;;;;8.65;6.65;;;;;;;;;;4364626;32;20255;-68
2021/10/31 22:32:07;;;;;;;8.57;7.10;;;;;;;;;;4364313;32;20121;-67
2021/10/31 22:34:33;;;;;;;8.35;6.95;;;;;;;;;;4378142;32;20102;-67
2021/10/31 22:36:59;;;;;;;11.88;7.82;;;;;;;;;;4378025;32;20088;-67
2021/10/31 22:39:27;;;;;;;9.65;7.20;;;;;;;;;;4376935;32;20190;-69
2021/10/31 22:41:53;;;;;;;9.95;6.82;;;;;;;;;;4376851;32;20186;-68
2021/10/31 22:44:18;;;;;;;9.70;7.07;;;;;;;;;;4364499;32;20607;-68
2021/10/31 22:46:45;;;;;;;10.48;7.55;;;;;;;;;;4376553;32;20119;-68
2021/10/31 22:49:11;;;;;;;8.88;7.22;;;;;;;;;;4378175;32;20493;-68
2021/10/31 22:51:37;;;;;;;8.90;7.18;;;;;;;;;;4376542;32;20513;-68
2021/10/31 22:54:04;;;;;;;9.23;6.75;;;;;;;;;;4377010;32;20212;-68
2021/10/31 22:56:30;;;;;;;7.87;7.07;;;;;;;;;;4364461;32;20190;-68
2021/10/31 22:58:56;;;;;;;8.23;7.22;;;;;;;;;;4376368;32;20159;-68
2021/10/31 23:01:23;;;;;;;11.77;7.85;;;;;;;;;;4376890;32;20461;-68
2021/10/31 23:03:49;;;;;;;11.57;7.82;;;;;;;;;;4377717;32;20088;-68
2021/10/31 23:06:17;;;;;;;12.27;7.68;;;;;;;;;;4376500;32;20204;-68
2021/10/31 23:08:44;;;;;;;9.23;8.20;;;;;;;;;;4364319;32;20177;-68
2021/10/31 23:11:10;;;;;;;9.23;6.75;;;;;;;;;;4377955;32;20707;-68
2021/10/31 23:13:37;;;;;;;8.77;7.32;;;;;;;;;;4377635;32;20550;-68
2021/10/31 23:16:04;;;;;;;10.10;7.62;;;;;;;;;;4376603;32;20117;-68
2021/10/31 23:18:30;;;;;;;8.98;7.10;;;;;;;;;;4376236;32;20120;-68
2021/10/31 23:20:56;;;;;;;9.48;7.22;;;;;;;;;;4377730;32;20689;-67
2021/10/31 23:23:22;;;;;;;8.57;6.82;;;;;;;;;;4376162;32;20113;-68
2021/10/31 23:25:49;;;;;;;9.68;7.62;;;;;;;;;;4376595;32;20534;-68
2021/10/31 23:28:15;;;;;;;9.23;7.25;;;;;;;;;;4376180;32;20106;-67
2021/10/31 23:30:41;;;;;;;10.35;6.70;;;;;;;;;;4376405;32;20196;-68
2021/10/31 23:33:07;;;;;;;8.65;6.95;;;;;;;;;;4377629;32;20110;-68
2021/10/31 23:35:33;;;;;;;8.30;6.70;;;;;;;;;;4376829;32;20094;-68
2021/10/31 23:37:59;;;;;;;9.50;6.95;;;;;;;;;;4376156;32;20086;-68
2021/10/31 23:40:26;;;;;;;9.50;7.07;;;;;;;;;;4376318;32;20189;-68
2021/10/31 23:42:52;;;;;;;11.00;7.35;;;;;;;;;;4377589;32;20098;-67
2021/10/31 23:45:19;;;;;;;9.05;7.40;;;;;;;;;;4376331;32;20318;-68
2021/10/31 23:47:45;;;;;;;9.85;7.18;;;;;;;;;;4376324;32;20125;-68
